sensor_id;sensor_type;location;lat;lon;timestamp;P1;durP1;ratioP1;P2;durP2;ratioP2
11453;SDS011;5783;55.174;61.310;2023-12-28T00:01:04;2.67;;;1.77;;
11453;SDS011;5783;55.174;61.310;2023-12-28T00:03:33;1.75;;;1.65;;
11453;SDS011;5783;55.174;61.310;2023-12-28T00:06:03;1.90;;;1.80;;
11453;SDS011;5783;55.174;61.310;2023-12-28T00:08:32;2.20;;;2.00;;
11453;SDS011;5783;55.174;61.310;2023-12-28T00:11:01;2.12;;;2.00;;
11453;SDS011;5783;55.174;61.310;2023-12-28T00:13:30;1.90;;;1.80;;
11453;SDS011;5783;55.174;61.310;2023-12-28T00:16:00;1.98;;;1.87;;
11453;SDS011;5783;55.174;61.310;2023-12-28T00:18:30;2.10;;;2.00;;
11453;SDS011;5783;55.174;61.310;2023-12-28T00:20:59;2.33;;;2.12;;
11453;SDS011;5783;55.174;61.310;2023-12-28T00:23:28;2.20;;;2.00;;
11453;SDS011;5783;55.174;61.310;2023-12-28T00:25:57;2.20;;;2.00;;
11453;SDS011;5783;55.174;61.310;2023-12-28T00:28:26;2.10;;;1.90;;
11453;SDS011;5783;55.174;61.310;2023-12-28T00:30:56;2.20;;;2.00;;
11453;SDS011;5783;55.174;61.310;2023-12-28T00:33:25;2.02;;;1.90;;
11453;SDS011;5783;55.174;61.310;2023-12-28T00:35:54;2.00;;;1.90;;
11453;SDS011;5783;55.174;61.310;2023-12-28T00:38:23;1.80;;;1.70;;
11453;SDS011;5783;55.174;61.310;2023-12-28T00:40:52;1.82;;;1.72;;
11453;SDS011;5783;55.174;61.310;2023-12-28T00:43:21;2.27;;;2.08;;
11453;SDS011;5783;55.174;61.310;2023-12-28T00:45:50;2.05;;;1.90;;
11453;SDS011;5783;55.174;61.310;2023-12-28T00:48:39;2.00;;;1.90;;
11453;SDS011;5783;55.174;61.310;2023-12-28T00:51:08;2.15;;;1.95;;
11453;SDS011;5783;55.174;61.310;2023-12-28T00:53:37;1.70;;;1.60;;
11453;SDS011;5783;55.174;61.310;2023-12-28T00:56:07;1.90;;;1.80;;
11453;SDS011;5783;55.174;61.310;2023-12-28T01:01:28;1.70;;;1.60;;
11453;SDS011;5783;55.174;61.310;2023-12-28T01:04:16;2.08;;;1.98;;
11453;SDS011;5783;55.174;61.310;2023-12-28T01:06:45;1.80;;;1.70;;
11453;SDS011;5783;55.174;61.310;2023-12-28T01:09:14;2.08;;;1.87;;
11453;SDS011;5783;55.174;61.310;2023-12-28T01:11:43;1.85;;;1.75;;
11453;SDS011;5783;55.174;61.310;2023-12-28T01:14:12;2.00;;;1.90;;
11453;SDS011;5783;55.174;61.310;2023-12-28T01:16:41;2.20;;;2.00;;
11453;SDS011;5783;55.174;61.310;2023-12-28T01:19:10;1.87;;;1.77;;
11453;SDS011;5783;55.174;61.310;2023-12-28T01:21:39;1.92;;;1.82;;
11453;SDS011;5783;55.174;61.310;2023-12-28T01:24:08;1.87;;;1.77;;
11453;SDS011;5783;55.174;61.310;2023-12-28T01:26:37;2.10;;;1.90;;
11453;SDS011;5783;55.174;61.310;2023-12-28T01:29:06;2.00;;;1.80;;
11453;SDS011;5783;55.174;61.310;2023-12-28T01:31:36;1.98;;;1.87;;
11453;SDS011;5783;55.174;61.310;2023-12-28T01:34:06;1.80;;;1.70;;
11453;SDS011;5783;55.174;61.310;2023-12-28T01:36:35;1.57;;;1.47;;
11453;SDS011;5783;55.174;61.310;2023-12-28T01:39:05;1.57;;;1.47;;
11453;SDS011;5783;55.174;61.310;2023-12-28T01:41:36;1.70;;;1.60;;
11453;SDS011;5783;55.174;61.310;2023-12-28T01:44:05;1.92;;;1.82;;
11453;SDS011;5783;55.174;61.310;2023-12-28T01:46:35;1.70;;;1.60;;
11453;SDS011;5783;55.174;61.310;2023-12-28T01:49:04;1.98;;;1.87;;
11453;SDS011;5783;55.174;61.310;2023-12-28T01:51:33;1.80;;;1.70;;
11453;SDS011;5783;55.174;61.310;2023-12-28T01:54:03;1.80;;;1.65;;
11453;SDS011;5783;55.174;61.310;2023-12-28T01:56:33;2.00;;;1.80;;
11453;SDS011;5783;55.174;61.310;2023-12-28T01:59:03;1.82;;;1.72;;
11453;SDS011;5783;55.174;61.310;2023-12-28T02:01:32;1.82;;;1.72;;
11453;SDS011;5783;55.174;61.310;2023-12-28T02:04:02;1.60;;;1.50;;
11453;SDS011;5783;55.174;61.310;2023-12-28T02:06:31;2.00;;;1.80;;
11453;SDS011;5783;55.174;61.310;2023-12-28T02:09:01;2.83;;;1.60;;
11453;SDS011;5783;55.174;61.310;2023-12-28T02:11:30;1.70;;;1.60;;
11453;SDS011;5783;55.174;61.310;2023-12-28T02:13:59;1.90;;;1.80;;
11453;SDS011;5783;55.174;61.310;2023-12-28T02:16:31;1.85;;;1.72;;
11453;SDS011;5783;55.174;61.310;2023-12-28T02:19:54;2.25;;;1.95;;
11453;SDS011;5783;55.174;61.310;2023-12-28T02:22:09;2.30;;;1.98;;
11453;SDS011;5783;55.174;61.310;2023-12-28T02:28:03;2.20;;;2.00;;
11453;SDS011;5783;55.174;61.310;2023-12-28T02:30:23;1.72;;;1.62;;
11453;SDS011;5783;55.174;61.310;2023-12-28T02:38:51;1.87;;;1.70;;
11453;SDS011;5783;55.174;61.310;2023-12-28T02:41:24;2.37;;;2.08;;
11453;SDS011;5783;55.174;61.310;2023-12-28T02:43:54;2.12;;;1.92;;
11453;SDS011;5783;55.174;61.310;2023-12-28T02:46:24;2.52;;;2.08;;
11453;SDS011;5783;55.174;61.310;2023-12-28T02:48:53;2.40;;;2.20;;
11453;SDS011;5783;55.174;61.310;2023-12-28T02:51:24;2.52;;;1.90;;
11453;SDS011;5783;55.174;61.310;2023-12-28T02:53:54;2.27;;;2.07;;
11453;SDS011;5783;55.174;61.310;2023-12-28T02:56:23;2.37;;;2.17;;
11453;SDS011;5783;55.174;61.310;2023-12-28T02:58:52;2.20;;;2.00;;
11453;SDS011;5783;55.174;61.310;2023-12-28T03:01:22;2.52;;;2.20;;
11453;SDS011;5783;55.174;61.310;2023-12-28T03:03:51;2.40;;;2.20;;
11453;SDS011;5783;55.174;61.310;2023-12-28T03:06:20;2.65;;;2.20;;
11453;SDS011;5783;55.174;61.310;2023-12-28T03:08:49;2.80;;;2.12;;
11453;SDS011;5783;55.174;61.310;2023-12-28T03:11:19;2.42;;;2.22;;
11453;SDS011;5783;55.174;61.310;2023-12-28T03:13:49;3.27;;;2.60;;
11453;SDS011;5783;55.174;61.310;2023-12-28T03:16:18;2.30;;;2.10;;
11453;SDS011;5783;55.174;61.310;2023-12-28T03:18:47;2.62;;;2.40;;
11453;SDS011;5783;55.174;61.310;2023-12-28T03:21:16;2.35;;;2.15;;
11453;SDS011;5783;55.174;61.310;2023-12-28T03:23:45;3.15;;;2.40;;
11453;SDS011;5783;55.174;61.310;2023-12-28T03:26:14;2.95;;;2.40;;
11453;SDS011;5783;55.174;61.310;2023-12-28T03:28:43;3.15;;;2.40;;
11453;SDS011;5783;55.174;61.310;2023-12-28T03:31:13;3.15;;;2.40;;
11453;SDS011;5783;55.174;61.310;2023-12-28T03:33:42;2.30;;;2.10;;
11453;SDS011;5783;55.174;61.310;2023-12-28T03:36:45;2.83;;;2.52;;
11453;SDS011;5783;55.174;61.310;2023-12-28T03:39:02;2.72;;;2.20;;
11453;SDS011;5783;55.174;61.310;2023-12-28T03:41:31;4.37;;;2.22;;
11453;SDS011;5783;55.174;61.310;2023-12-28T03:44:01;3.25;;;2.30;;
11453;SDS011;5783;55.174;61.310;2023-12-28T03:46:30;3.72;;;2.40;;
11453;SDS011;5783;55.174;61.310;2023-12-28T03:48:59;2.77;;;2.42;;
11453;SDS011;5783;55.174;61.310;2023-12-28T03:51:28;2.60;;;2.33;;
11453;SDS011;5783;55.174;61.310;2023-12-28T03:53:57;3.00;;;2.60;;
11453;SDS011;5783;55.174;61.310;2023-12-28T03:56:27;2.65;;;2.17;;
11453;SDS011;5783;55.174;61.310;2023-12-28T03:58:58;3.60;;;2.70;;
11453;SDS011;5783;55.174;61.310;2023-12-28T04:01:27;2.45;;;2.20;;
11453;SDS011;5783;55.174;61.310;2023-12-28T04:03:56;3.50;;;2.40;;
11453;SDS011;5783;55.174;61.310;2023-12-28T04:06:25;3.62;;;2.47;;
11453;SDS011;5783;55.174;61.310;2023-12-28T04:08:54;3.67;;;2.65;;
11453;SDS011;5783;55.174;61.310;2023-12-28T04:11:24;2.55;;;2.30;;
11453;SDS011;5783;55.174;61.310;2023-12-28T04:13:53;2.77;;;2.30;;
11453;SDS011;5783;55.174;61.310;2023-12-28T04:16:22;2.50;;;2.30;;
11453;SDS011;5783;55.174;61.310;2023-12-28T04:18:51;2.62;;;2.25;;
11453;SDS011;5783;55.174;61.310;2023-12-28T04:23:51;2.58;;;2.30;;
11453;SDS011;5783;55.174;61.310;2023-12-28T04:26:20;4.10;;;2.30;;
11453;SDS011;5783;55.174;61.310;2023-12-28T04:28:49;2.58;;;2.30;;
11453;SDS011;5783;55.174;61.310;2023-12-28T04:31:18;2.50;;;2.10;;
11453;SDS011;5783;55.174;61.310;2023-12-28T04:33:48;2.75;;;2.37;;
11453;SDS011;5783;55.174;61.310;2023-12-28T04:36:17;2.77;;;2.33;;
11453;SDS011;5783;55.174;61.310;2023-12-28T04:38:46;2.50;;;2.20;;
11453;SDS011;5783;55.174;61.310;2023-12-28T04:41:16;2.70;;;2.30;;
11453;SDS011;5783;55.174;61.310;2023-12-28T04:43:44;2.80;;;2.50;;
11453;SDS011;5783;55.174;61.310;2023-12-28T04:46:13;3.12;;;2.55;;
11453;SDS011;5783;55.174;61.310;2023-12-28T04:48:42;4.03;;;2.30;;
11453;SDS011;5783;55.174;61.310;2023-12-28T04:51:11;3.70;;;2.50;;
11453;SDS011;5783;55.174;61.310;2023-12-28T04:53:41;2.95;;;2.30;;
11453;SDS011;5783;55.174;61.310;2023-12-28T04:56:10;3.52;;;2.40;;
11453;SDS011;5783;55.174;61.310;2023-12-28T04:58:39;4.33;;;2.40;;
11453;SDS011;5783;55.174;61.310;2023-12-28T05:01:08;2.83;;;2.40;;
11453;SDS011;5783;55.174;61.310;2023-12-28T05:03:37;2.80;;;2.27;;
11453;SDS011;5783;55.174;61.310;2023-12-28T05:06:07;5.17;;;2.87;;
11453;SDS011;5783;55.174;61.310;2023-12-28T05:08:36;3.65;;;2.70;;
11453;SDS011;5783;55.174;61.310;2023-12-28T05:11:05;3.65;;;2.60;;
11453;SDS011;5783;55.174;61.310;2023-12-28T05:13:34;3.52;;;2.50;;
11453;SDS011;5783;55.174;61.310;2023-12-28T05:16:03;2.40;;;2.20;;
11453;SDS011;5783;55.174;61.310;2023-12-28T05:18:34;4.10;;;2.50;;
11453;SDS011;5783;55.174;61.310;2023-12-28T05:21:03;3.70;;;2.65;;
11453;SDS011;5783;55.174;61.310;2023-12-28T05:23:33;3.02;;;2.42;;
11453;SDS011;5783;55.174;61.310;2023-12-28T05:26:02;4.97;;;3.40;;
11453;SDS011;5783;55.174;61.310;2023-12-28T05:28:32;5.65;;;4.00;;
11453;SDS011;5783;55.174;61.310;2023-12-28T05:31:01;8.55;;;6.03;;
11453;SDS011;5783;55.174;61.310;2023-12-28T05:33:30;9.80;;;6.78;;
11453;SDS011;5783;55.174;61.310;2023-12-28T05:35:59;7.50;;;5.50;;
11453;SDS011;5783;55.174;61.310;2023-12-28T05:40:57;8.50;;;5.40;;
11453;SDS011;5783;55.174;61.310;2023-12-28T05:43:26;8.20;;;6.50;;
11453;SDS011;5783;55.174;61.310;2023-12-28T05:45:55;9.00;;;6.10;;
11453;SDS011;5783;55.174;61.310;2023-12-28T05:53:20;15.20;;;10.40;;
11453;SDS011;5783;55.174;61.310;2023-12-28T05:55:49;13.50;;;9.50;;
11453;SDS011;5783;55.174;61.310;2023-12-28T06:08:11;10.50;;;7.45;;
11453;SDS011;5783;55.174;61.310;2023-12-28T06:15:37;11.20;;;6.90;;
11453;SDS011;5783;55.174;61.310;2023-12-28T06:25:31;8.00;;;5.60;;
11453;SDS011;5783;55.174;61.310;2023-12-28T06:28:00;6.45;;;4.75;;
11453;SDS011;5783;55.174;61.310;2023-12-28T06:42:50;5.00;;;4.00;;
11453;SDS011;5783;55.174;61.310;2023-12-28T07:05:06;4.60;;;3.00;;
11453;SDS011;5783;55.174;61.310;2023-12-28T08:11:54;9.70;;;6.00;;
11453;SDS011;5783;55.174;61.310;2023-12-28T08:14:24;10.20;;;5.90;;
11453;SDS011;5783;55.174;61.310;2023-12-28T08:21:50;9.90;;;6.15;;
11453;SDS011;5783;55.174;61.310;2023-12-28T08:24:18;8.10;;;6.03;;
11453;SDS011;5783;55.174;61.310;2023-12-28T08:39:09;8.30;;;6.30;;
11453;SDS011;5783;55.174;61.310;2023-12-28T08:41:38;8.80;;;6.30;;
11453;SDS011;5783;55.174;61.310;2023-12-28T09:01:25;11.60;;;7.30;;
11453;SDS011;5783;55.174;61.310;2023-12-28T09:06:25;14.60;;;9.50;;
11453;SDS011;5783;55.174;61.310;2023-12-28T09:41:26;17.45;;;12.80;;
11453;SDS011;5783;55.174;61.310;2023-12-28T09:51:42;15.85;;;10.70;;
11453;SDS011;5783;55.174;61.310;2023-12-28T09:54:11;13.40;;;9.70;;
11453;SDS011;5783;55.174;61.310;2023-12-28T11:14:41;11.25;;;7.85;;
11453;SDS011;5783;55.174;61.310;2023-12-28T11:42:00;31.45;;;20.20;;
11453;SDS011;5783;55.174;61.310;2023-12-28T12:01:51;21.65;;;14.10;;
11453;SDS011;5783;55.174;61.310;2023-12-28T15:21:12;13.20;;;9.30;;
11453;SDS011;5783;55.174;61.310;2023-12-28T15:26:12;12.20;;;9.20;;
11453;SDS011;5783;55.174;61.310;2023-12-28T15:31:10;9.35;;;7.30;;
11453;SDS011;5783;55.174;61.310;2023-12-28T15:33:39;10.60;;;7.90;;
11453;SDS011;5783;55.174;61.310;2023-12-28T15:46:01;8.10;;;5.75;;
11453;SDS011;5783;55.174;61.310;2023-12-28T15:53:27;7.20;;;5.70;;
11453;SDS011;5783;55.174;61.310;2023-12-28T16:05:49;5.60;;;4.70;;
11453;SDS011;5783;55.174;61.310;2023-12-28T16:33:03;3.75;;;3.10;;
11453;SDS011;5783;55.174;61.310;2023-12-28T16:42:57;2.90;;;2.60;;
11453;SDS011;5783;55.174;61.310;2023-12-28T16:45:26;3.55;;;2.80;;
11453;SDS011;5783;55.174;61.310;2023-12-28T17:02:49;3.40;;;2.55;;
11453;SDS011;5783;55.174;61.310;2023-12-28T17:05:18;2.70;;;2.50;;
11453;SDS011;5783;55.174;61.310;2023-12-28T17:10:18;2.80;;;2.50;;
11453;SDS011;5783;55.174;61.310;2023-12-28T17:12:48;2.40;;;2.20;;
11453;SDS011;5783;55.174;61.310;2023-12-28T17:15:18;2.50;;;2.30;;
11453;SDS011;5783;55.174;61.310;2023-12-28T17:17:48;2.92;;;2.55;;
11453;SDS011;5783;55.174;61.310;2023-12-28T17:20:17;2.75;;;2.45;;
11453;SDS011;5783;55.174;61.310;2023-12-28T17:22:47;3.72;;;2.52;;
11453;SDS011;5783;55.174;61.310;2023-12-28T17:35:57;2.50;;;2.15;;
11453;SDS011;5783;55.174;61.310;2023-12-28T17:38:26;2.98;;;2.45;;
11453;SDS011;5783;55.174;61.310;2023-12-28T17:40:56;2.60;;;2.40;;
11453;SDS011;5783;55.174;61.310;2023-12-28T17:51:12;3.00;;;2.30;;
11453;SDS011;5783;55.174;61.310;2023-12-28T17:53:44;2.80;;;2.10;;
11453;SDS011;5783;55.174;61.310;2023-12-28T17:56:13;2.40;;;2.20;;
11453;SDS011;5783;55.174;61.310;2023-12-28T17:58:45;2.50;;;2.00;;
11453;SDS011;5783;55.174;61.310;2023-12-28T18:03:43;2.45;;;2.25;;
11453;SDS011;5783;55.174;61.310;2023-12-28T18:06:13;2.17;;;1.97;;
11453;SDS011;5783;55.174;61.310;2023-12-28T18:11:10;2.50;;;2.02;;
11453;SDS011;5783;55.174;61.310;2023-12-28T18:16:08;3.70;;;2.30;;
11453;SDS011;5783;55.174;61.310;2023-12-28T18:21:10;3.85;;;2.90;;
11453;SDS011;5783;55.174;61.310;2023-12-28T18:23:38;3.67;;;2.90;;
11453;SDS011;5783;55.174;61.310;2023-12-28T18:28:37;4.28;;;3.55;;
11453;SDS011;5783;55.174;61.310;2023-12-28T18:31:07;5.60;;;4.20;;
11453;SDS011;5783;55.174;61.310;2023-12-28T18:33:37;6.12;;;4.60;;
11453;SDS011;5783;55.174;61.310;2023-12-28T18:36:06;7.40;;;5.08;;
11453;SDS011;5783;55.174;61.310;2023-12-28T18:38:37;7.65;;;5.78;;
11453;SDS011;5783;55.174;61.310;2023-12-28T18:43:34;8.20;;;5.90;;
11453;SDS011;5783;55.174;61.310;2023-12-28T18:46:03;9.98;;;6.40;;
11453;SDS011;5783;55.174;61.310;2023-12-28T18:48:32;10.20;;;6.70;;
11453;SDS011;5783;55.174;61.310;2023-12-28T18:51:03;10.57;;;6.17;;
11453;SDS011;5783;55.174;61.310;2023-12-28T18:53:32;11.83;;;6.58;;
11453;SDS011;5783;55.174;61.310;2023-12-28T18:56:01;9.78;;;6.50;;
11453;SDS011;5783;55.174;61.310;2023-12-28T18:58:31;11.97;;;6.33;;
11453;SDS011;5783;55.174;61.310;2023-12-28T19:01:00;12.20;;;7.15;;
11453;SDS011;5783;55.174;61.310;2023-12-28T19:03:30;10.03;;;6.28;;
11453;SDS011;5783;55.174;61.310;2023-12-28T19:05:59;10.20;;;6.80;;
11453;SDS011;5783;55.174;61.310;2023-12-28T19:08:28;9.53;;;6.28;;
11453;SDS011;5783;55.174;61.310;2023-12-28T19:10:57;10.68;;;6.53;;
11453;SDS011;5783;55.174;61.310;2023-12-28T19:13:26;9.78;;;6.50;;
11453;SDS011;5783;55.174;61.310;2023-12-28T19:15:55;10.55;;;6.83;;
11453;SDS011;5783;55.174;61.310;2023-12-28T19:20:55;10.95;;;6.67;;
11453;SDS011;5783;55.174;61.310;2023-12-28T19:23:25;8.70;;;6.10;;
11453;SDS011;5783;55.174;61.310;2023-12-28T19:25:54;9.75;;;6.50;;
11453;SDS011;5783;55.174;61.310;2023-12-28T19:28:23;7.70;;;5.85;;
11453;SDS011;5783;55.174;61.310;2023-12-28T19:30:52;9.68;;;5.87;;
11453;SDS011;5783;55.174;61.310;2023-12-28T19:33:22;8.40;;;5.90;;
11453;SDS011;5783;55.174;61.310;2023-12-28T19:35:51;9.55;;;5.87;;
11453;SDS011;5783;55.174;61.310;2023-12-28T19:38:21;7.87;;;5.20;;
11453;SDS011;5783;55.174;61.310;2023-12-28T19:40:51;6.75;;;5.15;;
11453;SDS011;5783;55.174;61.310;2023-12-28T19:43:20;6.65;;;5.50;;
11453;SDS011;5783;55.174;61.310;2023-12-28T19:48:39;6.85;;;4.55;;
11453;SDS011;5783;55.174;61.310;2023-12-28T19:51:09;6.65;;;5.03;;
11453;SDS011;5783;55.174;61.310;2023-12-28T19:53:38;6.60;;;4.72;;
11453;SDS011;5783;55.174;61.310;2023-12-28T19:56:07;5.12;;;4.35;;
11453;SDS011;5783;55.174;61.310;2023-12-28T19:58:36;7.17;;;4.58;;
11453;SDS011;5783;55.174;61.310;2023-12-28T20:01:06;5.35;;;4.30;;
11453;SDS011;5783;55.174;61.310;2023-12-28T20:03:36;6.05;;;3.92;;
11453;SDS011;5783;55.174;61.310;2023-12-28T20:06:06;4.92;;;3.75;;
11453;SDS011;5783;55.174;61.310;2023-12-28T20:08:36;4.72;;;3.92;;
11453;SDS011;5783;55.174;61.310;2023-12-28T20:11:05;6.28;;;4.05;;
11453;SDS011;5783;55.174;61.310;2023-12-28T20:13:34;4.70;;;3.80;;
11453;SDS011;5783;55.174;61.310;2023-12-28T20:16:04;5.75;;;3.52;;
11453;SDS011;5783;55.174;61.310;2023-12-28T20:18:33;4.70;;;3.20;;
11453;SDS011;5783;55.174;61.310;2023-12-28T20:21:03;3.95;;;3.25;;
11453;SDS011;5783;55.174;61.310;2023-12-28T20:23:32;4.50;;;3.30;;
11453;SDS011;5783;55.174;61.310;2023-12-28T20:26:01;3.40;;;3.10;;
11453;SDS011;5783;55.174;61.310;2023-12-28T20:28:31;3.55;;;2.92;;
11453;SDS011;5783;55.174;61.310;2023-12-28T20:31:00;3.87;;;3.10;;
11453;SDS011;5783;55.174;61.310;2023-12-28T20:33:31;3.12;;;2.50;;
11453;SDS011;5783;55.174;61.310;2023-12-28T20:36:02;3.27;;;2.85;;
11453;SDS011;5783;55.174;61.310;2023-12-28T20:38:31;2.70;;;2.40;;
11453;SDS011;5783;55.174;61.310;2023-12-28T20:41:00;3.25;;;2.62;;
11453;SDS011;5783;55.174;61.310;2023-12-28T20:43:31;2.72;;;2.50;;
11453;SDS011;5783;55.174;61.310;2023-12-28T20:46:02;2.92;;;2.27;;
11453;SDS011;5783;55.174;61.310;2023-12-28T20:48:31;2.87;;;2.42;;
11453;SDS011;5783;55.174;61.310;2023-12-28T20:51:00;3.60;;;2.35;;
11453;SDS011;5783;55.174;61.310;2023-12-28T20:53:30;3.02;;;2.25;;
11453;SDS011;5783;55.174;61.310;2023-12-28T20:55:59;2.80;;;2.42;;
11453;SDS011;5783;55.174;61.310;2023-12-28T20:58:28;3.17;;;2.10;;
11453;SDS011;5783;55.174;61.310;2023-12-28T21:00:58;2.20;;;2.00;;
11453;SDS011;5783;55.174;61.310;2023-12-28T21:03:27;2.33;;;2.05;;
11453;SDS011;5783;55.174;61.310;2023-12-28T21:05:56;2.20;;;1.90;;
11453;SDS011;5783;55.174;61.310;2023-12-28T21:08:25;2.55;;;2.00;;
11453;SDS011;5783;55.174;61.310;2023-12-28T21:10:55;2.05;;;1.80;;
11453;SDS011;5783;55.174;61.310;2023-12-28T21:13:25;2.40;;;2.05;;
11453;SDS011;5783;55.174;61.310;2023-12-28T21:15:56;2.17;;;1.82;;
11453;SDS011;5783;55.174;61.310;2023-12-28T21:18:26;2.00;;;1.80;;
11453;SDS011;5783;55.174;61.310;2023-12-28T21:20:55;4.05;;;2.05;;
11453;SDS011;5783;55.174;61.310;2023-12-28T21:23:25;2.80;;;2.08;;
11453;SDS011;5783;55.174;61.310;2023-12-28T21:25:54;2.10;;;1.90;;
11453;SDS011;5783;55.174;61.310;2023-12-28T21:28:23;2.20;;;2.00;;
11453;SDS011;5783;55.174;61.310;2023-12-28T21:30:52;2.30;;;2.02;;
11453;SDS011;5783;55.174;61.310;2023-12-28T21:33:22;2.10;;;1.90;;
11453;SDS011;5783;55.174;61.310;2023-12-28T21:35:51;2.77;;;1.98;;
11453;SDS011;5783;55.174;61.310;2023-12-28T21:38:20;1.70;;;1.60;;
11453;SDS011;5783;55.174;61.310;2023-12-28T21:40:49;2.00;;;1.80;;
11453;SDS011;5783;55.174;61.310;2023-12-28T21:43:18;1.90;;;1.80;;
11453;SDS011;5783;55.174;61.310;2023-12-28T21:45:48;1.72;;;1.62;;
11453;SDS011;5783;55.174;61.310;2023-12-28T21:48:17;1.92;;;1.75;;
11453;SDS011;5783;55.174;61.310;2023-12-28T21:50:46;2.17;;;1.80;;
11453;SDS011;5783;55.174;61.310;2023-12-28T21:53:15;2.15;;;1.95;;
11453;SDS011;5783;55.174;61.310;2023-12-28T21:55:45;2.07;;;1.90;;
11453;SDS011;5783;55.174;61.310;2023-12-28T21:58:13;2.15;;;1.92;;
11453;SDS011;5783;55.174;61.310;2023-12-28T22:00:42;2.10;;;1.90;;
11453;SDS011;5783;55.174;61.310;2023-12-28T22:03:11;2.25;;;2.05;;
11453;SDS011;5783;55.174;61.310;2023-12-28T22:05:41;2.35;;;2.02;;
11453;SDS011;5783;55.174;61.310;2023-12-28T22:08:10;2.10;;;1.90;;
11453;SDS011;5783;55.174;61.310;2023-12-28T22:10:40;2.08;;;1.90;;
11453;SDS011;5783;55.174;61.310;2023-12-28T22:13:09;2.02;;;1.82;;
11453;SDS011;5783;55.174;61.310;2023-12-28T22:15:39;2.17;;;1.98;;
11453;SDS011;5783;55.174;61.310;2023-12-28T22:18:08;2.58;;;2.08;;
11453;SDS011;5783;55.174;61.310;2023-12-28T22:20:37;2.10;;;1.90;;
11453;SDS011;5783;55.174;61.310;2023-12-28T22:23:06;2.20;;;2.00;;
11453;SDS011;5783;55.174;61.310;2023-12-28T22:25:36;2.27;;;2.08;;
11453;SDS011;5783;55.174;61.310;2023-12-28T22:28:05;1.90;;;1.80;;
11453;SDS011;5783;55.174;61.310;2023-12-28T22:30:34;2.40;;;2.20;;
11453;SDS011;5783;55.174;61.310;2023-12-28T22:33:03;2.40;;;2.20;;
11453;SDS011;5783;55.174;61.310;2023-12-28T22:35:33;2.30;;;2.02;;
11453;SDS011;5783;55.174;61.310;2023-12-28T22:38:02;2.90;;;2.30;;
11453;SDS011;5783;55.174;61.310;2023-12-28T22:40:31;2.30;;;2.10;;
11453;SDS011;5783;55.174;61.310;2023-12-28T22:43:00;2.40;;;2.20;;
11453;SDS011;5783;55.174;61.310;2023-12-28T22:45:30;2.40;;;2.12;;
11453;SDS011;5783;55.174;61.310;2023-12-28T22:47:59;2.42;;;2.22;;
11453;SDS011;5783;55.174;61.310;2023-12-28T22:50:29;2.45;;;2.25;;
11453;SDS011;5783;55.174;61.310;2023-12-28T22:52:58;2.58;;;2.37;;
11453;SDS011;5783;55.174;61.310;2023-12-28T22:55:27;2.65;;;2.30;;
11453;SDS011;5783;55.174;61.310;2023-12-28T22:57:56;2.33;;;2.10;;
11453;SDS011;5783;55.174;61.310;2023-12-28T23:00:26;2.67;;;2.30;;
11453;SDS011;5783;55.174;61.310;2023-12-28T23:03:15;2.50;;;2.30;;
11453;SDS011;5783;55.174;61.310;2023-12-28T23:05:43;2.60;;;2.40;;
11453;SDS011;5783;55.174;61.310;2023-12-28T23:08:12;2.50;;;2.30;;
11453;SDS011;5783;55.174;61.310;2023-12-28T23:10:42;3.33;;;2.70;;
11453;SDS011;5783;55.174;61.310;2023-12-28T23:13:11;2.87;;;2.30;;
11453;SDS011;5783;55.174;61.310;2023-12-28T23:15:40;3.27;;;2.20;;
11453;SDS011;5783;55.174;61.310;2023-12-28T23:18:09;2.40;;;2.20;;
11453;SDS011;5783;55.174;61.310;2023-12-28T23:20:40;2.42;;;2.22;;
11453;SDS011;5783;55.174;61.310;2023-12-28T23:23:09;2.77;;;2.50;;
11453;SDS011;5783;55.174;61.310;2023-12-28T23:25:38;2.50;;;2.30;;
11453;SDS011;5783;55.174;61.310;2023-12-28T23:28:07;2.70;;;2.40;;
11453;SDS011;5783;55.174;61.310;2023-12-28T23:30:37;2.62;;;2.42;;
11453;SDS011;5783;55.174;61.310;2023-12-28T23:33:06;2.45;;;2.25;;
11453;SDS011;5783;55.174;61.310;2023-12-28T23:35:35;2.95;;;2.50;;
11453;SDS011;5783;55.174;61.310;2023-12-28T23:38:04;2.58;;;2.33;;
11453;SDS011;5783;55.174;61.310;2023-12-28T23:40:33;3.45;;;3.08;;
11453;SDS011;5783;55.174;61.310;2023-12-28T23:43:03;2.50;;;2.30;;
11453;SDS011;5783;55.174;61.310;2023-12-28T23:45:33;2.70;;;2.50;;
11453;SDS011;5783;55.174;61.310;2023-12-28T23:48:02;2.65;;;2.37;;
11453;SDS011;5783;55.174;61.310;2023-12-28T23:50:31;2.83;;;2.50;;
11453;SDS011;5783;55.174;61.310;2023-12-28T23:53:00;4.05;;;2.80;;
11453;SDS011;5783;55.174;61.310;2023-12-28T23:55:30;2.58;;;2.37;;
11453;SDS011;5783;55.174;61.310;2023-12-28T23:57:59;2.77;;;2.52;;
